| time (UTC) | temp C | wind direction | speed KPH | gust KPH | rain 1hr cm | rain 24hr cm | rain mn cm | humidity % | barometer mb |
| 20260906224548 | 18 | 360 | 12.9 | 22.5 | 0.00 | 0.00 | 0.00 | 72 | 1013.6 |
| 20260906223041 | 18 | 360 | 16.1 | 22.5 | 0.00 | 0.00 | 0.00 | 72 | 1013.5 |
| 20260906221544 | 18 | 360 | 12.9 | 20.9 | 0.00 | 0.00 | 0.00 | 72 | 1013.6 |
| 20260906220039 | 18 | 360 | 12.9 | 16.1 | 0.00 | 0.00 | 0.00 | 71 | 1013.5 |
| 20260906214538 | 18 | 360 | 11.3 | 17.7 | 0.00 | 0.00 | 0.00 | 72 | 1013.6 |
| 20260906213038 | 18 | 360 | 9.7 | 17.7 | 0.00 | 0.00 | 0.00 | 73 | 1013.5 |
| 20260906211541 | 17 | 360 | 8.0 | 14.5 | 0.00 | 0.00 | 0.00 | 73 | 1013.7 |
| 20260906210037 | 18 | 302 | 9.7 | 16.1 | 0.00 | 0.00 | 0.00 | 73 | 1013.8 |
| 20260906204555 | 17 | 360 | 8.0 | 17.7 | 0.00 | 0.00 | 0.00 | 73 | 1013.7 |
| 20260906203035 | 17 | 360 | 9.7 | 19.3 | 0.00 | 0.00 | 0.00 | 72 | 1013.7 |
| 20260906201536 | 18 | 360 | 8.0 | 17.7 | 0.00 | 0.00 | 0.00 | 72 | 1013.7 |
| 20260906200032 | 18 | 348 | 9.7 | 19.3 | 0.00 | 0.00 | 0.00 | 72 | 1013.6 |
| 20260906194530 | 17 | 360 | 9.7 | 24.1 | 0.00 | 0.00 | 0.00 | 72 | 1013.6 |
| 20260906193027 | 17 | 360 | 14.5 | 22.5 | 0.00 | 0.00 | 0.00 | 72 | 1013.8 |
| 20260906191529 | 17 | 360 | 11.3 | 25.7 | 0.00 | 0.00 | 0.00 | 74 | 1013.9 |
| 20260906190021 | 16 | 331 | 16.1 | 25.7 | 0.00 | 0.00 | 0.00 | 76 | 1014.2 |
| 20260906184517 | 15 | 334 | 19.3 | 32.2 | 0.00 | 0.00 | 0.00 | 76 | 1014.5 |
| 20260906183016 | 15 | 339 | 17.7 | 32.2 | 0.00 | 0.00 | 0.00 | 78 | 1015.0 |
| 20260906181510 | 14 | 311 | 24.1 | 33.8 | 0.00 | 0.00 | 0.00 | 78 | 1015.2 |
| 20260906180008 | 14 | 360 | 22.5 | 33.8 | 0.00 | 0.00 | 0.00 | 80 | 1015.7 |
| 20260906174507 | 13 | 309 | 22.5 | 33.8 | 0.00 | 0.00 | 0.00 | 81 | 1016.0 |
| 20260906173006 | 13 | 304 | 19.3 | 29.0 | 0.00 | 0.00 | 0.00 | 82 | 1016.0 |
| 20260906171505 | 13 | 325 | 20.9 | 27.4 | 0.00 | 0.00 | 0.00 | 82 | 1016.2 |
| 20260906170006 | 13 | 315 | 14.5 | 27.4 | 0.00 | 0.00 | 0.00 | 83 | 1016.2 |
| 20260906164505 | 13 | 360 | 17.7 | 25.7 | 0.00 | 0.00 | 0.00 | 83 | 1016.3 |
| 20260906163003 | 13 | 360 | 16.1 | 22.5 | 0.00 | 0.00 | 0.00 | 83 | 1016.2 |
| 20260906161508 | 13 | 311 | 16.1 | 27.4 | 0.00 | 0.00 | 0.00 | 82 | 1016.4 |
| 20260906160003 | 15 | 360 | 14.5 | 20.9 | 0.00 | 0.00 | 0.00 | 83 | 1016.5 |
| 20260906154501 | 15 | 360 | 9.7 | 16.1 | 0.00 | 0.00 | 0.00 | 83 | 1016.5 |
| 20260906153005 | 15 | 360 | 3.2 | 9.7 | 0.00 | 0.00 | 0.00 | 82 | 1016.3 |
| 20260906151603 | 15 | 360 | 3.2 | 6.4 | 0.00 | 0.00 | 0.00 | 83 | 1016.3 |
| 20260906151501 | 15 | 360 | 1.6 | 6.4 | 0.00 | 0.00 | 0.00 | 83 | 1016.2 |
| 20260906150100 | 15 | 360 | 3.2 | 9.7 | 0.00 | 0.00 | 0.00 | 82 | 1016.2 |
| 20260906144558 | 15 | 360 | 8.0 | 14.5 | 0.00 | 0.00 | 0.00 | 81 | 1016.4 |
| 20260906143107 | 15 | 331 | 0.0 | 0.0 | 0.00 | 0.00 | 0.00 | 81 | 1016.8 |
| 20260906141555 | 15 | 331 | 0.0 | 4.8 | 0.00 | 0.00 | 0.00 | 81 | 1016.9 |
| 20260906140054 | 15 | 331 | 1.6 | 9.7 | 0.00 | 0.00 | 0.00 | 82 | 1016.6 |
| 20260906134551 | 14 | 360 | 4.8 | 8.0 | 0.00 | 0.00 | 0.00 | 83 | 1016.4 |
| 20260906133052 | 13 | 360 | 0.0 | 3.2 | 0.00 | 0.00 | 0.00 | 83 | 1016.5 |
| 20260906131549 | 13 | 360 | 3.2 | 6.4 | 0.00 | 0.00 | 0.00 | 83 | 1016.7 |
| 20260906130049 | 13 | 360 | 4.8 | 12.9 | 0.00 | 0.00 | 0.00 | 83 | 1016.3 |
| 20260906124546 | 13 | 360 | 6.4 | 12.9 | 0.00 | 0.00 | 0.00 | 83 | 1016.5 |
| 20260906123045 | 13 | 360 | 4.8 | 16.1 | 0.00 | 0.00 | 0.00 | 83 | 1016.9 |
| 20260906121550 | 13 | 360 | 6.4 | 14.5 | 0.00 | 0.00 | 0.00 | 83 | 1016.8 |
| 20260906120055 | 13 | 360 | 8.0 | 16.1 | 0.00 | 0.00 | 0.00 | 82 | 1016.7 |
| 20260906114543 | 13 | 360 | 8.0 | 16.1 | 0.00 | 0.00 | 0.00 | 83 | 1016.7 |
| 20260906113047 | 13 | 360 | 8.0 | 14.5 | 0.00 | 0.00 | 0.00 | 83 | 1016.7 |
| 20260906111544 | 13 | 360 | 9.7 | 17.7 | 0.00 | 0.00 | 0.00 | 83 | 1016.9 |
| 20260906110040 | 13 | 360 | 12.9 | 20.9 | 0.00 | 0.00 | 0.00 | 83 | 1016.8 |
| 20260906104539 | 13 | 360 | 16.1 | 25.7 | 0.00 | 0.00 | 0.00 | 83 | 1016.9 |
| 20260906103036 | 13 | 313 | 14.5 | 24.1 | 0.00 | 0.00 | 0.00 | 83 | 1017.1 |
| 20260906101538 | 13 | 310 | 16.1 | 24.1 | 0.00 | 0.00 | 0.00 | 83 | 1017.1 |
| 20260906100035 | 13 | 303 | 17.7 | 27.4 | 0.00 | 0.00 | 0.00 | 83 | 1017.2 |
| 20260906094538 | 12 | 321 | 16.1 | 24.1 | 0.00 | 0.00 | 0.00 | 84 | 1017.2 |
| 20260906093037 | 13 | 360 | 16.1 | 24.1 | 0.00 | 0.00 | 0.00 | 83 | 1017.5 |
| 20260906091534 | 13 | 311 | 19.3 | 27.4 | 0.00 | 0.00 | 0.00 | 83 | 1017.6 |
| 20260906090030 | 12 | 300 | 14.5 | 24.1 | 0.00 | 0.00 | 0.00 | 83 | 1017.6 |
| 20260906084543 | 12 | 360 | 17.7 | 27.4 | 0.00 | 0.00 | 0.00 | 83 | 1017.7 |
| 20260906083035 | 12 | 360 | 14.5 | 20.9 | 0.00 | 0.00 | 0.00 | 84 | 1017.8 |
| 20260906081525 | 12 | 360 | 8.0 | 17.7 | 0.00 | 0.00 | 0.00 | 83 | 1018.0 |
| 20260906080029 | 13 | 360 | 4.8 | 16.1 | 0.00 | 0.00 | 0.00 | 82 | 1018.1 |
| 20260906074521 | 13 | 360 | 14.5 | 22.5 | 0.00 | 0.00 | 0.00 | 82 | 1018.3 |
| 20260906073018 | 13 | 360 | 9.7 | 17.7 | 0.00 | 0.00 | 0.00 | 82 | 1018.5 |
| 20260906071515 | 13 | 360 | 12.9 | 19.3 | 0.00 | 0.00 | 0.00 | 81 | 1018.9 |
| 20260906070013 | 13 | 293 | 14.5 | 22.5 | 0.00 | 0.00 | 0.00 | 80 | 1019.2 |
| 20260906064514 | 13 | 360 | 11.3 | 16.1 | 0.00 | 0.00 | 0.00 | 79 | 1019.0 |
| 20260906063010 | 13 | 307 | 12.9 | 19.3 | 0.00 | 0.00 | 0.00 | 79 | 1019.0 |
| 20260906061512 | 13 | 360 | 12.9 | 19.3 | 0.00 | 0.00 | 0.00 | 80 | 1018.9 |
| 20260906060005 | 13 | 360 | 11.3 | 19.3 | 0.00 | 0.00 | 0.00 | 79 | 1018.9 |
| 20260906054503 | 13 | 360 | 9.7 | 17.7 | 0.00 | 0.00 | 0.00 | 80 | 1018.9 |
| 20260906053003 | 14 | 360 | 11.3 | 19.3 | 0.00 | 0.00 | 0.00 | 77 | 1019.1 |
| 20260906051506 | 15 | 360 | 11.3 | 17.7 | 0.00 | 0.00 | 0.00 | 75 | 1019.2 |
| 20260906050002 | 15 | 360 | 16.1 | 22.5 | 0.00 | 0.00 | 0.00 | 74 | 1018.3 |
| 20260906044602 | 15 | 360 | 11.3 | 17.7 | 0.00 | 0.00 | 0.00 | 73 | 1018.3 |
| 20260906043100 | 15 | 336 | 14.5 | 20.9 | 0.00 | 0.00 | 0.00 | 72 | 1018.3 |
| 20260906041605 | 15 | 360 | 14.5 | 22.5 | 0.00 | 0.00 | 0.00 | 72 | 1018.5 |
| 20260906034555 | 15 | 360 | 16.1 | 24.1 | 0.00 | 0.00 | 0.00 | 72 | 1018.4 |
| 20260906033055 | 15 | 360 | 16.1 | 25.7 | 0.00 | 0.00 | 0.00 | 70 | 1017.8 |
| 20260906031554 | 15 | 360 | 17.7 | 25.7 | 0.00 | 0.00 | 0.00 | 69 | 1017.5 |
| 20260906030054 | 15 | 360 | 16.1 | 29.0 | 0.00 | 0.00 | 0.00 | 67 | 1017.3 |
| 20260906024602 | 16 | 360 | 16.1 | 27.4 | 0.00 | 0.00 | 0.00 | 66 | 1017.0 |
| 20260906023053 | 16 | 320 | 19.3 | 30.6 | 0.00 | 0.00 | 0.00 | 65 | 1016.9 |
| 20260906021552 | 16 | 360 | 20.9 | 29.0 | 0.00 | 0.00 | 0.00 | 64 | 1017.1 |
| 20260906020052 | 16 | 360 | 14.5 | 25.7 | 0.00 | 0.00 | 0.00 | 64 | 1017.0 |
| 20260906014602 | 17 | 360 | 17.7 | 29.0 | 0.00 | 0.00 | 0.00 | 63 | 1016.9 |
| 20260906013051 | 17 | 360 | 17.7 | 29.0 | 0.00 | 0.00 | 0.00 | 62 | 1016.7 |
| 20260906011550 | 17 | 360 | 17.7 | 27.4 | 0.00 | 0.00 | 0.00 | 61 | 1016.8 |
| 20260906010050 | 18 | 360 | 17.7 | 29.0 | 0.00 | 0.00 | 0.00 | 59 | 1016.8 |
| 20260906004548 | 18 | 360 | 20.9 | 29.0 | 0.00 | 0.00 | 0.00 | 58 | 1016.5 |
| 20260906003105 | 18 | 360 | 16.1 | 25.7 | 0.00 | 0.00 | 0.00 | 58 | 1016.5 |
| 20260906001549 | 19 | 360 | 19.3 | 29.0 | 0.00 | 0.00 | 0.00 | 56 | 1016.7 |
| 20260906000046 | 21 | 322 | 19.3 | 32.2 | 0.00 | 0.00 | 0.00 | 50 | 1016.6 |
| 20260905234545 | 21 | 298 | 19.3 | 30.6 | 0.00 | 0.00 | 0.00 | 48 | 1016.7 |
| 20260905233045 | 22 | 360 | 17.7 | 29.0 | 0.00 | 0.00 | 0.00 | 45 | 1016.5 |
| 20260905231544 | 22 | 360 | 16.1 | 24.1 | 0.00 | 0.00 | 0.00 | 40 | 1016.4 |
| 20260905230043 | 22 | 360 | 14.5 | 22.5 | 0.00 | 0.00 | 0.00 | 38 | 1016.4 |